Terminal Aerodrome Forecast
Issued by NWS Green Bay, WI

Home | Current Version | Previous Version | Text Only | Print | Product List | Glossary On
Versions: 1 2 3 4 5 6 7 8 9 10 11 12 13 14 15 16 17 18 19 20 21 22 23
000
FTUS43 KGRB 260529
TAFGRB
TAF
KGRB 260529Z 2606/2706 09005KT 4SM BR SCT006 SCT050
      TEMPO 2606/2609 1 1/2SM BR
     FM260900 18005KT 1 1/2SM BR BKN005
     FM261500 21010G17KT P6SM SCT025 BKN040
     FM262300 16007KT P6SM SCT045 BKN250=

USA.gov is the U.S. government's official web portal to all federal, state and local government web resources and services.